sensor_id;sensor_type;location;lat;lon;timestamp;P1;durP1;ratioP1;P2;durP2;ratioP2
64851;SDS011;56050;55.558;-4.644;2022-09-03T00:08:09;6.07;;;3.65;;
64851;SDS011;56050;55.558;-4.644;2022-09-03T00:13:31;7.30;;;2.92;;
64851;SDS011;56050;55.558;-4.644;2022-09-03T00:16:00;6.82;;;3.78;;
64851;SDS011;56050;55.558;-4.644;2022-09-03T00:18:35;7.53;;;3.63;;
64851;SDS011;56050;55.558;-4.644;2022-09-03T00:21:08;5.97;;;3.58;;
64851;SDS011;56050;55.558;-4.644;2022-09-03T00:23:40;6.63;;;3.25;;
64851;SDS011;56050;55.558;-4.644;2022-09-03T00:28:40;5.72;;;3.55;;
64851;SDS011;56050;55.558;-4.644;2022-09-03T00:33:38;6.57;;;3.08;;
64851;SDS011;56050;55.558;-4.644;2022-09-03T00:38:37;10.23;;;3.22;;
64851;SDS011;56050;55.558;-4.644;2022-09-03T01:00:45;4.38;;;2.13;;
64851;SDS011;56050;55.558;-4.644;2022-09-03T01:03:13;5.10;;;1.58;;
64851;SDS011;56050;55.558;-4.644;2022-09-03T01:14:40;3.60;;;2.38;;
64851;SDS011;56050;55.558;-4.644;2022-09-03T01:20:26;5.15;;;1.55;;
64851;SDS011;56050;55.558;-4.644;2022-09-03T01:25:51;5.20;;;2.08;;
64851;SDS011;56050;55.558;-4.644;2022-09-03T01:28:23;3.10;;;1.67;;
64851;SDS011;56050;55.558;-4.644;2022-09-03T01:42:22;2.80;;;1.45;;
64851;SDS011;56050;55.558;-4.644;2022-09-03T01:58:14;2.75;;;1.35;;
64851;SDS011;56050;55.558;-4.644;2022-09-03T02:00:45;3.95;;;1.75;;
64851;SDS011;56050;55.558;-4.644;2022-09-03T02:03:17;4.88;;;1.55;;
64851;SDS011;56050;55.558;-4.644;2022-09-03T02:05:43;6.72;;;1.58;;
64851;SDS011;56050;55.558;-4.644;2022-09-03T02:08:10;2.38;;;1.27;;
64851;SDS011;56050;55.558;-4.644;2022-09-03T02:10:43;2.53;;;1.73;;
64851;SDS011;56050;55.558;-4.644;2022-09-03T02:13:13;3.90;;;1.95;;
64851;SDS011;56050;55.558;-4.644;2022-09-03T02:15:44;2.70;;;0.93;;
64851;SDS011;56050;55.558;-4.644;2022-09-03T02:18:19;3.10;;;1.25;;
64851;SDS011;56050;55.558;-4.644;2022-09-03T02:20:49;4.53;;;1.45;;
64851;SDS011;56050;55.558;-4.644;2022-09-03T02:23:17;3.42;;;1.40;;
64851;SDS011;56050;55.558;-4.644;2022-09-03T02:25:44;4.07;;;1.73;;
64851;SDS011;56050;55.558;-4.644;2022-09-03T02:28:14;3.60;;;1.83;;
64851;SDS011;56050;55.558;-4.644;2022-09-03T02:30:40;2.20;;;1.30;;
64851;SDS011;56050;55.558;-4.644;2022-09-03T02:33:06;2.80;;;1.67;;
64851;SDS011;56050;55.558;-4.644;2022-09-03T02:35:32;3.67;;;1.55;;
64851;SDS011;56050;55.558;-4.644;2022-09-03T02:38:08;2.42;;;1.27;;
64851;SDS011;56050;55.558;-4.644;2022-09-03T02:40:38;2.50;;;1.23;;
64851;SDS011;56050;55.558;-4.644;2022-09-03T02:43:04;4.75;;;1.95;;
64851;SDS011;56050;55.558;-4.644;2022-09-03T02:45:32;2.78;;;1.48;;
64851;SDS011;56050;55.558;-4.644;2022-09-03T02:48:00;6.28;;;1.27;;
64851;SDS011;56050;55.558;-4.644;2022-09-03T02:50:26;2.53;;;1.30;;
64851;SDS011;56050;55.558;-4.644;2022-09-03T02:52:52;5.55;;;1.63;;
64851;SDS011;56050;55.558;-4.644;2022-09-03T02:55:18;3.70;;;1.52;;
64851;SDS011;56050;55.558;-4.644;2022-09-03T02:57:44;4.25;;;1.60;;
64851;SDS011;56050;55.558;-4.644;2022-09-03T03:00:11;2.80;;;1.38;;
64851;SDS011;56050;55.558;-4.644;2022-09-03T03:02:37;8.82;;;3.90;;
64851;SDS011;56050;55.558;-4.644;2022-09-03T03:05:03;4.60;;;1.38;;
64851;SDS011;56050;55.558;-4.644;2022-09-03T03:07:29;2.47;;;1.27;;
64851;SDS011;56050;55.558;-4.644;2022-09-03T03:09:57;3.75;;;1.05;;
64851;SDS011;56050;55.558;-4.644;2022-09-03T03:12:23;3.28;;;1.30;;
64851;SDS011;56050;55.558;-4.644;2022-09-03T03:14:49;2.72;;;1.33;;
64851;SDS011;56050;55.558;-4.644;2022-09-03T03:17:14;3.60;;;1.40;;
64851;SDS011;56050;55.558;-4.644;2022-09-03T03:19:40;3.50;;;1.20;;
64851;SDS011;56050;55.558;-4.644;2022-09-03T03:22:05;3.08;;;1.40;;
64851;SDS011;56050;55.558;-4.644;2022-09-03T03:24:31;5.75;;;1.92;;
64851;SDS011;56050;55.558;-4.644;2022-09-03T03:26:56;3.65;;;1.52;;
64851;SDS011;56050;55.558;-4.644;2022-09-03T03:29:22;3.17;;;1.13;;
64851;SDS011;56050;55.558;-4.644;2022-09-03T03:31:49;3.80;;;1.83;;
64851;SDS011;56050;55.558;-4.644;2022-09-03T03:34:15;2.92;;;1.02;;
64851;SDS011;56050;55.558;-4.644;2022-09-03T03:36:40;3.75;;;1.58;;
64851;SDS011;56050;55.558;-4.644;2022-09-03T03:39:06;3.58;;;1.30;;
64851;SDS011;56050;55.558;-4.644;2022-09-03T03:41:32;7.50;;;1.50;;
64851;SDS011;56050;55.558;-4.644;2022-09-03T03:44:00;6.45;;;1.55;;
64851;SDS011;56050;55.558;-4.644;2022-09-03T03:46:29;5.85;;;1.90;;
64851;SDS011;56050;55.558;-4.644;2022-09-03T03:48:59;4.18;;;1.42;;
64851;SDS011;56050;55.558;-4.644;2022-09-03T03:51:25;3.63;;;1.58;;
64851;SDS011;56050;55.558;-4.644;2022-09-03T03:53:52;4.22;;;1.70;;
64851;SDS011;56050;55.558;-4.644;2022-09-03T03:56:19;2.58;;;1.58;;
64851;SDS011;56050;55.558;-4.644;2022-09-03T03:58:45;3.60;;;1.92;;
64851;SDS011;56050;55.558;-4.644;2022-09-03T04:01:16;4.75;;;1.75;;
64851;SDS011;56050;55.558;-4.644;2022-09-03T04:06:10;3.53;;;2.07;;
64851;SDS011;56050;55.558;-4.644;2022-09-03T04:08:39;3.42;;;1.58;;
64851;SDS011;56050;55.558;-4.644;2022-09-03T04:11:06;3.30;;;1.70;;
64851;SDS011;56050;55.558;-4.644;2022-09-03T04:13:38;3.92;;;2.15;;
64851;SDS011;56050;55.558;-4.644;2022-09-03T04:16:05;3.20;;;1.75;;
64851;SDS011;56050;55.558;-4.644;2022-09-03T04:18:39;3.38;;;2.00;;
64851;SDS011;56050;55.558;-4.644;2022-09-03T04:21:06;3.63;;;1.85;;
64851;SDS011;56050;55.558;-4.644;2022-09-03T04:23:34;3.60;;;1.85;;
64851;SDS011;56050;55.558;-4.644;2022-09-03T04:26:01;2.78;;;1.83;;
64851;SDS011;56050;55.558;-4.644;2022-09-03T04:28:27;4.35;;;2.30;;
64851;SDS011;56050;55.558;-4.644;2022-09-03T04:30:53;4.88;;;2.20;;
64851;SDS011;56050;55.558;-4.644;2022-09-03T04:33:19;5.70;;;2.28;;
64851;SDS011;56050;55.558;-4.644;2022-09-03T04:35:44;4.90;;;2.33;;
64851;SDS011;56050;55.558;-4.644;2022-09-03T04:38:10;5.60;;;2.10;;
64851;SDS011;56050;55.558;-4.644;2022-09-03T04:40:36;4.95;;;2.28;;
64851;SDS011;56050;55.558;-4.644;2022-09-03T04:43:02;6.18;;;2.25;;
64851;SDS011;56050;55.558;-4.644;2022-09-03T04:45:28;6.03;;;2.20;;
64851;SDS011;56050;55.558;-4.644;2022-09-03T04:50:22;5.63;;;2.92;;
64851;SDS011;56050;55.558;-4.644;2022-09-03T04:52:48;5.35;;;2.35;;
64851;SDS011;56050;55.558;-4.644;2022-09-03T04:55:13;6.63;;;2.42;;
64851;SDS011;56050;55.558;-4.644;2022-09-03T04:57:40;4.60;;;2.58;;
64851;SDS011;56050;55.558;-4.644;2022-09-03T05:00:07;5.28;;;2.80;;
64851;SDS011;56050;55.558;-4.644;2022-09-03T05:02:35;6.28;;;2.70;;
64851;SDS011;56050;55.558;-4.644;2022-09-03T05:05:01;5.95;;;2.92;;
64851;SDS011;56050;55.558;-4.644;2022-09-03T05:07:27;5.95;;;2.30;;
64851;SDS011;56050;55.558;-4.644;2022-09-03T05:09:53;9.07;;;3.58;;
64851;SDS011;56050;55.558;-4.644;2022-09-03T05:12:19;5.97;;;2.95;;
64851;SDS011;56050;55.558;-4.644;2022-09-03T05:14:46;4.45;;;2.25;;
64851;SDS011;56050;55.558;-4.644;2022-09-03T05:17:12;4.97;;;2.80;;
64851;SDS011;56050;55.558;-4.644;2022-09-03T05:19:37;5.32;;;2.65;;
64851;SDS011;56050;55.558;-4.644;2022-09-03T05:22:02;4.90;;;2.70;;
64851;SDS011;56050;55.558;-4.644;2022-09-03T05:24:28;6.30;;;2.45;;
64851;SDS011;56050;55.558;-4.644;2022-09-03T05:26:53;5.15;;;2.83;;
64851;SDS011;56050;55.558;-4.644;2022-09-03T05:29:19;7.60;;;3.10;;
64851;SDS011;56050;55.558;-4.644;2022-09-03T05:31:45;6.80;;;3.17;;
64851;SDS011;56050;55.558;-4.644;2022-09-03T05:34:11;5.25;;;3.25;;
64851;SDS011;56050;55.558;-4.644;2022-09-03T05:36:37;5.82;;;3.13;;
64851;SDS011;56050;55.558;-4.644;2022-09-03T05:39:03;5.88;;;3.75;;
64851;SDS011;56050;55.558;-4.644;2022-09-03T05:41:29;6.65;;;3.65;;
64851;SDS011;56050;55.558;-4.644;2022-09-03T05:43:56;5.93;;;2.95;;
64851;SDS011;56050;55.558;-4.644;2022-09-03T05:46:31;6.15;;;3.53;;
64851;SDS011;56050;55.558;-4.644;2022-09-03T05:49:02;7.47;;;3.28;;
64851;SDS011;56050;55.558;-4.644;2022-09-03T05:51:29;4.75;;;3.42;;
64851;SDS011;56050;55.558;-4.644;2022-09-03T05:53:56;7.45;;;3.63;;
64851;SDS011;56050;55.558;-4.644;2022-09-03T05:56:23;7.40;;;3.15;;
64851;SDS011;56050;55.558;-4.644;2022-09-03T05:58:50;6.93;;;3.45;;
64851;SDS011;56050;55.558;-4.644;2022-09-03T06:03:44;6.95;;;3.58;;
64851;SDS011;56050;55.558;-4.644;2022-09-03T06:06:12;8.07;;;4.28;;
64851;SDS011;56050;55.558;-4.644;2022-09-03T06:08:38;6.93;;;3.17;;
64851;SDS011;56050;55.558;-4.644;2022-09-03T06:11:05;7.40;;;4.22;;
64851;SDS011;56050;55.558;-4.644;2022-09-03T06:13:32;8.70;;;4.53;;
64851;SDS011;56050;55.558;-4.644;2022-09-03T06:15:59;10.77;;;5.55;;
64851;SDS011;56050;55.558;-4.644;2022-09-03T06:18:26;8.20;;;4.07;;
64851;SDS011;56050;55.558;-4.644;2022-09-03T06:20:59;8.23;;;3.80;;
64851;SDS011;56050;55.558;-4.644;2022-09-03T06:23:29;9.27;;;3.95;;
64851;SDS011;56050;55.558;-4.644;2022-09-03T06:26:03;9.05;;;4.57;;
64851;SDS011;56050;55.558;-4.644;2022-09-03T06:28:41;9.18;;;5.18;;
64851;SDS011;56050;55.558;-4.644;2022-09-03T06:31:09;9.30;;;4.82;;
64851;SDS011;56050;55.558;-4.644;2022-09-03T06:33:37;9.68;;;4.93;;
64851;SDS011;56050;55.558;-4.644;2022-09-03T06:36:04;8.45;;;4.70;;
64851;SDS011;56050;55.558;-4.644;2022-09-03T06:38:32;11.40;;;4.60;;
64851;SDS011;56050;55.558;-4.644;2022-09-03T06:41:03;7.30;;;5.22;;
64851;SDS011;56050;55.558;-4.644;2022-09-03T06:43:31;9.75;;;5.15;;
64851;SDS011;56050;55.558;-4.644;2022-09-03T06:46:02;9.35;;;4.80;;
64851;SDS011;56050;55.558;-4.644;2022-09-03T06:48:30;8.48;;;3.97;;
64851;SDS011;56050;55.558;-4.644;2022-09-03T06:50:57;8.93;;;4.88;;
64851;SDS011;56050;55.558;-4.644;2022-09-03T06:53:25;8.52;;;4.10;;
64851;SDS011;56050;55.558;-4.644;2022-09-03T06:55:55;8.27;;;4.40;;
64851;SDS011;56050;55.558;-4.644;2022-09-03T06:58:24;10.02;;;5.40;;
64851;SDS011;56050;55.558;-4.644;2022-09-03T07:00:53;10.52;;;4.43;;
64851;SDS011;56050;55.558;-4.644;2022-09-03T07:03:19;9.07;;;4.13;;
64851;SDS011;56050;55.558;-4.644;2022-09-03T07:05:45;7.63;;;4.47;;
64851;SDS011;56050;55.558;-4.644;2022-09-03T07:08:11;9.80;;;5.03;;
64851;SDS011;56050;55.558;-4.644;2022-09-03T07:10:37;8.15;;;4.65;;
64851;SDS011;56050;55.558;-4.644;2022-09-03T07:13:02;9.43;;;4.28;;
64851;SDS011;56050;55.558;-4.644;2022-09-03T07:15:30;9.00;;;4.82;;
64851;SDS011;56050;55.558;-4.644;2022-09-03T07:17:57;10.70;;;5.10;;
64851;SDS011;56050;55.558;-4.644;2022-09-03T07:20:22;12.38;;;4.85;;
64851;SDS011;56050;55.558;-4.644;2022-09-03T07:22:48;10.48;;;5.00;;
64851;SDS011;56050;55.558;-4.644;2022-09-03T07:25:13;11.68;;;5.07;;
64851;SDS011;56050;55.558;-4.644;2022-09-03T07:27:39;8.82;;;4.63;;
64851;SDS011;56050;55.558;-4.644;2022-09-03T07:30:04;8.68;;;4.03;;
64851;SDS011;56050;55.558;-4.644;2022-09-03T07:32:33;8.65;;;5.13;;
64851;SDS011;56050;55.558;-4.644;2022-09-03T07:35:01;9.57;;;4.82;;
64851;SDS011;56050;55.558;-4.644;2022-09-03T07:37:27;8.57;;;4.63;;
64851;SDS011;56050;55.558;-4.644;2022-09-03T07:39:52;8.05;;;4.55;;
64851;SDS011;56050;55.558;-4.644;2022-09-03T07:42:18;11.07;;;4.50;;
64851;SDS011;56050;55.558;-4.644;2022-09-03T07:44:44;11.40;;;4.18;;
64851;SDS011;56050;55.558;-4.644;2022-09-03T07:47:10;8.98;;;4.22;;
64851;SDS011;56050;55.558;-4.644;2022-09-03T07:49:36;10.13;;;4.72;;
64851;SDS011;56050;55.558;-4.644;2022-09-03T07:52:01;10.63;;;4.55;;
64851;SDS011;56050;55.558;-4.644;2022-09-03T07:54:27;8.52;;;4.18;;
64851;SDS011;56050;55.558;-4.644;2022-09-03T07:56:52;10.15;;;4.70;;
64851;SDS011;56050;55.558;-4.644;2022-09-03T07:59:18;8.32;;;4.18;;
64851;SDS011;56050;55.558;-4.644;2022-09-03T08:01:46;11.93;;;5.13;;
64851;SDS011;56050;55.558;-4.644;2022-09-03T08:04:12;7.53;;;3.67;;
64851;SDS011;56050;55.558;-4.644;2022-09-03T08:06:38;9.73;;;4.60;;
64851;SDS011;56050;55.558;-4.644;2022-09-03T08:09:05;9.10;;;4.32;;
64851;SDS011;56050;55.558;-4.644;2022-09-03T08:11:35;8.27;;;4.53;;
64851;SDS011;56050;55.558;-4.644;2022-09-03T08:14:05;8.93;;;4.15;;
64851;SDS011;56050;55.558;-4.644;2022-09-03T08:16:33;10.30;;;4.53;;
64851;SDS011;56050;55.558;-4.644;2022-09-03T08:19:01;9.77;;;4.45;;
64851;SDS011;56050;55.558;-4.644;2022-09-03T08:21:27;7.25;;;4.03;;
64851;SDS011;56050;55.558;-4.644;2022-09-03T08:23:53;9.43;;;4.10;;
64851;SDS011;56050;55.558;-4.644;2022-09-03T08:26:26;10.63;;;5.63;;
64851;SDS011;56050;55.558;-4.644;2022-09-03T08:28:52;10.32;;;4.75;;
64851;SDS011;56050;55.558;-4.644;2022-09-03T08:31:18;10.65;;;5.43;;
64851;SDS011;56050;55.558;-4.644;2022-09-03T08:33:46;11.63;;;5.10;;
64851;SDS011;56050;55.558;-4.644;2022-09-03T08:36:17;10.25;;;4.82;;
64851;SDS011;56050;55.558;-4.644;2022-09-03T08:38:46;12.77;;;5.80;;
64851;SDS011;56050;55.558;-4.644;2022-09-03T08:41:14;10.38;;;5.15;;
64851;SDS011;56050;55.558;-4.644;2022-09-03T08:46:15;12.00;;;5.72;;
64851;SDS011;56050;55.558;-4.644;2022-09-03T08:48:41;9.95;;;5.10;;
64851;SDS011;56050;55.558;-4.644;2022-09-03T08:51:06;11.85;;;5.65;;
64851;SDS011;56050;55.558;-4.644;2022-09-03T08:53:55;10.25;;;5.43;;
64851;SDS011;56050;55.558;-4.644;2022-09-03T08:56:27;11.23;;;5.55;;
64851;SDS011;56050;55.558;-4.644;2022-09-03T08:58:55;10.23;;;5.35;;
64851;SDS011;56050;55.558;-4.644;2022-09-03T09:14:34;13.07;;;6.88;;
64851;SDS011;56050;55.558;-4.644;2022-09-03T09:22:44;12.57;;;7.78;;
64851;SDS011;56050;55.558;-4.644;2022-09-03T09:25:22;13.10;;;6.30;;
64851;SDS011;56050;55.558;-4.644;2022-09-03T09:30:15;11.02;;;6.05;;
64851;SDS011;56050;55.558;-4.644;2022-09-03T09:32:42;12.38;;;6.07;;
64851;SDS011;56050;55.558;-4.644;2022-09-03T09:35:08;12.15;;;6.10;;
64851;SDS011;56050;55.558;-4.644;2022-09-03T09:37:34;13.20;;;6.93;;
64851;SDS011;56050;55.558;-4.644;2022-09-03T09:40:27;11.23;;;6.38;;
64851;SDS011;56050;55.558;-4.644;2022-09-03T09:45:29;12.38;;;6.40;;
64851;SDS011;56050;55.558;-4.644;2022-09-03T09:47:56;12.68;;;6.45;;
64851;SDS011;56050;55.558;-4.644;2022-09-03T09:50:21;14.90;;;7.43;;
64851;SDS011;56050;55.558;-4.644;2022-09-03T09:52:47;13.23;;;6.82;;
64851;SDS011;56050;55.558;-4.644;2022-09-03T09:55:16;13.05;;;6.47;;
64851;SDS011;56050;55.558;-4.644;2022-09-03T09:57:43;12.27;;;7.20;;
64851;SDS011;56050;55.558;-4.644;2022-09-03T10:00:11;15.70;;;7.15;;
64851;SDS011;56050;55.558;-4.644;2022-09-03T10:02:39;15.15;;;6.95;;
64851;SDS011;56050;55.558;-4.644;2022-09-03T10:05:28;13.07;;;7.70;;
64851;SDS011;56050;55.558;-4.644;2022-09-03T10:07:57;16.90;;;8.13;;
64851;SDS011;56050;55.558;-4.644;2022-09-03T10:10:24;15.15;;;7.90;;
64851;SDS011;56050;55.558;-4.644;2022-09-03T10:18:29;14.68;;;8.30;;
64851;SDS011;56050;55.558;-4.644;2022-09-03T10:23:45;14.75;;;7.85;;
64851;SDS011;56050;55.558;-4.644;2022-09-03T10:26:15;9.13;;;4.18;;
64851;SDS011;56050;55.558;-4.644;2022-09-03T10:28:44;11.18;;;5.47;;
64851;SDS011;56050;55.558;-4.644;2022-09-03T10:31:22;9.85;;;6.00;;
64851;SDS011;56050;55.558;-4.644;2022-09-03T10:46:34;9.27;;;3.13;;
64851;SDS011;56050;55.558;-4.644;2022-09-03T10:51:42;5.88;;;2.75;;
64851;SDS011;56050;55.558;-4.644;2022-09-03T11:02:42;5.97;;;1.73;;
64851;SDS011;56050;55.558;-4.644;2022-09-03T11:05:39;8.60;;;2.55;;
64851;SDS011;56050;55.558;-4.644;2022-09-03T11:08:16;5.55;;;1.83;;
64851;SDS011;56050;55.558;-4.644;2022-09-03T11:11:02;5.97;;;2.03;;
64851;SDS011;56050;55.558;-4.644;2022-09-03T11:13:54;6.10;;;2.10;;
64851;SDS011;56050;55.558;-4.644;2022-09-03T11:16:24;6.28;;;2.00;;
64851;SDS011;56050;55.558;-4.644;2022-09-03T11:19:05;5.50;;;2.00;;
64851;SDS011;56050;55.558;-4.644;2022-09-03T11:21:35;10.07;;;3.53;;
64851;SDS011;56050;55.558;-4.644;2022-09-03T11:24:16;6.25;;;2.08;;
64851;SDS011;56050;55.558;-4.644;2022-09-03T11:26:52;4.35;;;1.95;;
64851;SDS011;56050;55.558;-4.644;2022-09-03T11:29:52;3.97;;;1.80;;
64851;SDS011;56050;55.558;-4.644;2022-09-03T11:32:38;7.30;;;1.90;;
64851;SDS011;56050;55.558;-4.644;2022-09-03T11:37:59;5.53;;;1.60;;
64851;SDS011;56050;55.558;-4.644;2022-09-03T11:40:28;4.95;;;1.90;;
64851;SDS011;56050;55.558;-4.644;2022-09-03T11:43:09;6.18;;;1.65;;
64851;SDS011;56050;55.558;-4.644;2022-09-03T11:45:39;5.45;;;1.88;;
64851;SDS011;56050;55.558;-4.644;2022-09-03T11:48:17;3.95;;;1.50;;
64851;SDS011;56050;55.558;-4.644;2022-09-03T11:50:57;3.83;;;1.63;;
64851;SDS011;56050;55.558;-4.644;2022-09-03T11:53:31;4.00;;;2.28;;
64851;SDS011;56050;55.558;-4.644;2022-09-03T11:58:35;4.80;;;1.90;;
64851;SDS011;56050;55.558;-4.644;2022-09-03T12:01:11;4.45;;;2.00;;
64851;SDS011;56050;55.558;-4.644;2022-09-03T12:09:22;4.55;;;1.90;;
64851;SDS011;56050;55.558;-4.644;2022-09-03T12:15:04;3.63;;;1.20;;
64851;SDS011;56050;55.558;-4.644;2022-09-03T12:17:53;3.15;;;1.17;;
64851;SDS011;56050;55.558;-4.644;2022-09-03T12:20:39;3.55;;;1.30;;
64851;SDS011;56050;55.558;-4.644;2022-09-03T12:23:06;4.35;;;1.65;;
64851;SDS011;56050;55.558;-4.644;2022-09-03T12:25:32;3.42;;;1.60;;
64851;SDS011;56050;55.558;-4.644;2022-09-03T12:27:58;4.15;;;1.35;;
64851;SDS011;56050;55.558;-4.644;2022-09-03T12:30:28;7.20;;;2.47;;
64851;SDS011;56050;55.558;-4.644;2022-09-03T12:33:16;6.03;;;2.55;;
64851;SDS011;56050;55.558;-4.644;2022-09-03T12:35:41;6.10;;;2.35;;
64851;SDS011;56050;55.558;-4.644;2022-09-03T12:38:07;4.65;;;2.45;;
64851;SDS011;56050;55.558;-4.644;2022-09-03T12:40:32;7.15;;;2.13;;
64851;SDS011;56050;55.558;-4.644;2022-09-03T12:43:14;5.28;;;2.17;;
64851;SDS011;56050;55.558;-4.644;2022-09-03T12:45:43;3.45;;;1.70;;
64851;SDS011;56050;55.558;-4.644;2022-09-03T12:48:14;6.28;;;1.73;;
64851;SDS011;56050;55.558;-4.644;2022-09-03T12:50:41;3.60;;;1.48;;
64851;SDS011;56050;55.558;-4.644;2022-09-03T12:53:08;4.45;;;1.50;;
64851;SDS011;56050;55.558;-4.644;2022-09-03T12:55:37;3.85;;;1.58;;
64851;SDS011;56050;55.558;-4.644;2022-09-03T13:00:34;4.20;;;1.83;;
64851;SDS011;56050;55.558;-4.644;2022-09-03T13:03:05;4.10;;;1.45;;
64851;SDS011;56050;55.558;-4.644;2022-09-03T13:05:41;4.88;;;1.35;;
64851;SDS011;56050;55.558;-4.644;2022-09-03T13:08:13;7.28;;;1.75;;
64851;SDS011;56050;55.558;-4.644;2022-09-03T13:10:43;4.10;;;1.42;;
64851;SDS011;56050;55.558;-4.644;2022-09-03T13:38:04;3.92;;;1.52;;
64851;SDS011;56050;55.558;-4.644;2022-09-03T13:40:50;5.82;;;1.80;;
64851;SDS011;56050;55.558;-4.644;2022-09-03T13:48:43;4.00;;;1.73;;
64851;SDS011;56050;55.558;-4.644;2022-09-03T13:51:29;3.67;;;1.20;;
64851;SDS011;56050;55.558;-4.644;2022-09-03T13:56:56;4.00;;;1.45;;
64851;SDS011;56050;55.558;-4.644;2022-09-03T13:59:46;6.50;;;2.42;;
64851;SDS011;56050;55.558;-4.644;2022-09-03T14:18:43;9.27;;;5.70;;
64851;SDS011;56050;55.558;-4.644;2022-09-03T14:26:55;9.18;;;5.97;;
64851;SDS011;56050;55.558;-4.644;2022-09-03T14:29:29;9.38;;;5.65;;
64851;SDS011;56050;55.558;-4.644;2022-09-03T14:34:40;10.07;;;6.63;;
64851;SDS011;56050;55.558;-4.644;2022-09-03T14:40:10;10.60;;;6.22;;
64851;SDS011;56050;55.558;-4.644;2022-09-03T14:45:21;10.98;;;5.82;;
64851;SDS011;56050;55.558;-4.644;2022-09-03T15:12:04;9.40;;;5.80;;
64851;SDS011;56050;55.558;-4.644;2022-09-03T15:14:52;7.93;;;5.25;;
64851;SDS011;56050;55.558;-4.644;2022-09-03T15:20:25;8.98;;;5.45;;
64851;SDS011;56050;55.558;-4.644;2022-09-03T15:37:00;8.95;;;7.72;;
64851;SDS011;56050;55.558;-4.644;2022-09-03T15:39:34;11.52;;;5.43;;
64851;SDS011;56050;55.558;-4.644;2022-09-03T15:44:50;9.93;;;5.35;;
64851;SDS011;56050;55.558;-4.644;2022-09-03T15:56:14;9.25;;;5.47;;
64851;SDS011;56050;55.558;-4.644;2022-09-03T16:02:05;10.60;;;5.47;;
64851;SDS011;56050;55.558;-4.644;2022-09-03T16:07:47;8.90;;;6.35;;
64851;SDS011;56050;55.558;-4.644;2022-09-03T16:16:01;12.02;;;5.38;;
64851;SDS011;56050;55.558;-4.644;2022-09-03T16:18:41;10.73;;;4.53;;
64851;SDS011;56050;55.558;-4.644;2022-09-03T16:26:30;9.02;;;4.55;;
64851;SDS011;56050;55.558;-4.644;2022-09-03T16:29:16;11.80;;;7.30;;
64851;SDS011;56050;55.558;-4.644;2022-09-03T16:42:45;10.07;;;5.35;;
64851;SDS011;56050;55.558;-4.644;2022-09-03T16:57:20;11.27;;;7.78;;
64851;SDS011;56050;55.558;-4.644;2022-09-03T17:07:54;8.40;;;4.82;;
64851;SDS011;56050;55.558;-4.644;2022-09-03T17:21:36;9.50;;;4.78;;
64851;SDS011;56050;55.558;-4.644;2022-09-03T17:30:05;8.02;;;4.53;;
64851;SDS011;56050;55.558;-4.644;2022-09-03T17:50:52;10.05;;;5.28;;
64851;SDS011;56050;55.558;-4.644;2022-09-03T17:53:36;9.10;;;5.18;;
64851;SDS011;56050;55.558;-4.644;2022-09-03T17:56:09;10.65;;;6.40;;
64851;SDS011;56050;55.558;-4.644;2022-09-03T17:58:47;9.30;;;6.07;;
64851;SDS011;56050;55.558;-4.644;2022-09-03T18:01:22;13.50;;;5.20;;
64851;SDS011;56050;55.558;-4.644;2022-09-03T18:03:54;12.45;;;5.10;;
64851;SDS011;56050;55.558;-4.644;2022-09-03T18:06:29;10.95;;;5.40;;
64851;SDS011;56050;55.558;-4.644;2022-09-03T18:16:46;10.05;;;5.30;;
64851;SDS011;56050;55.558;-4.644;2022-09-03T18:19:30;14.02;;;6.43;;
64851;SDS011;56050;55.558;-4.644;2022-09-03T18:22:19;14.07;;;6.80;;
64851;SDS011;56050;55.558;-4.644;2022-09-03T18:25:08;11.60;;;6.72;;
64851;SDS011;56050;55.558;-4.644;2022-09-03T18:27:56;14.77;;;7.63;;
64851;SDS011;56050;55.558;-4.644;2022-09-03T18:30:47;16.15;;;8.00;;
64851;SDS011;56050;55.558;-4.644;2022-09-03T18:33:31;11.35;;;7.30;;
64851;SDS011;56050;55.558;-4.644;2022-09-03T18:36:15;12.90;;;6.75;;
64851;SDS011;56050;55.558;-4.644;2022-09-03T18:39:32;11.35;;;6.68;;
64851;SDS011;56050;55.558;-4.644;2022-09-03T18:42:24;8.65;;;5.13;;
64851;SDS011;56050;55.558;-4.644;2022-09-03T18:51:26;9.35;;;6.10;;
64851;SDS011;56050;55.558;-4.644;2022-09-03T18:54:30;11.88;;;5.93;;
64851;SDS011;56050;55.558;-4.644;2022-09-03T18:57:20;8.75;;;4.97;;
64851;SDS011;56050;55.558;-4.644;2022-09-03T19:00:11;8.90;;;4.78;;
64851;SDS011;56050;55.558;-4.644;2022-09-03T19:03:14;8.57;;;5.03;;
64851;SDS011;56050;55.558;-4.644;2022-09-03T19:21:40;20.25;;;8.82;;
64851;SDS011;56050;55.558;-4.644;2022-09-03T19:24:31;13.73;;;8.30;;
64851;SDS011;56050;55.558;-4.644;2022-09-03T19:27:28;17.50;;;8.95;;
64851;SDS011;56050;55.558;-4.644;2022-09-03T19:30:20;16.63;;;9.63;;
64851;SDS011;56050;55.558;-4.644;2022-09-03T19:33:13;18.23;;;9.68;;
64851;SDS011;56050;55.558;-4.644;2022-09-03T19:39:09;19.77;;;12.23;;
64851;SDS011;56050;55.558;-4.644;2022-09-03T19:45:38;17.98;;;11.10;;
64851;SDS011;56050;55.558;-4.644;2022-09-03T19:51:46;16.77;;;9.73;;
64851;SDS011;56050;55.558;-4.644;2022-09-03T19:54:47;18.70;;;8.73;;
64851;SDS011;56050;55.558;-4.644;2022-09-03T19:57:34;13.73;;;9.70;;
64851;SDS011;56050;55.558;-4.644;2022-09-03T20:00:19;13.68;;;7.53;;
64851;SDS011;56050;55.558;-4.644;2022-09-03T20:03:03;13.43;;;8.07;;
64851;SDS011;56050;55.558;-4.644;2022-09-03T20:05:48;12.32;;;7.32;;
64851;SDS011;56050;55.558;-4.644;2022-09-03T20:08:34;13.40;;;6.65;;
64851;SDS011;56050;55.558;-4.644;2022-09-03T20:11:20;11.38;;;6.00;;
64851;SDS011;56050;55.558;-4.644;2022-09-03T20:13:49;9.90;;;7.47;;
64851;SDS011;56050;55.558;-4.644;2022-09-03T20:19:27;8.63;;;4.97;;
64851;SDS011;56050;55.558;-4.644;2022-09-03T20:29:47;8.77;;;5.18;;
64851;SDS011;56050;55.558;-4.644;2022-09-03T20:32:28;8.15;;;4.65;;
64851;SDS011;56050;55.558;-4.644;2022-09-03T20:37:44;8.18;;;3.78;;
64851;SDS011;56050;55.558;-4.644;2022-09-03T20:51:35;7.65;;;3.55;;
64851;SDS011;56050;55.558;-4.644;2022-09-03T20:54:18;7.57;;;4.25;;
64851;SDS011;56050;55.558;-4.644;2022-09-03T21:04:45;9.88;;;4.68;;
64851;SDS011;56050;55.558;-4.644;2022-09-03T21:15:20;10.43;;;5.55;;
64851;SDS011;56050;55.558;-4.644;2022-09-03T21:23:43;9.38;;;4.47;;
64851;SDS011;56050;55.558;-4.644;2022-09-03T21:26:25;9.13;;;5.00;;
64851;SDS011;56050;55.558;-4.644;2022-09-03T21:34:10;9.35;;;4.35;;
64851;SDS011;56050;55.558;-4.644;2022-09-03T21:36:42;9.65;;;5.03;;
64851;SDS011;56050;55.558;-4.644;2022-09-03T21:39:14;10.20;;;5.35;;
64851;SDS011;56050;55.558;-4.644;2022-09-03T21:47:10;8.75;;;4.60;;
64851;SDS011;56050;55.558;-4.644;2022-09-03T21:49:39;7.15;;;3.90;;
64851;SDS011;56050;55.558;-4.644;2022-09-03T21:52:36;10.00;;;4.82;;
64851;SDS011;56050;55.558;-4.644;2022-09-03T21:55:21;10.40;;;4.45;;
64851;SDS011;56050;55.558;-4.644;2022-09-03T22:04:05;7.20;;;4.82;;
64851;SDS011;56050;55.558;-4.644;2022-09-03T22:06:35;7.47;;;3.92;;
64851;SDS011;56050;55.558;-4.644;2022-09-03T22:09:25;9.18;;;3.92;;
64851;SDS011;56050;55.558;-4.644;2022-09-03T22:12:15;11.35;;;4.40;;
64851;SDS011;56050;55.558;-4.644;2022-09-03T22:14:52;8.77;;;4.47;;
64851;SDS011;56050;55.558;-4.644;2022-09-03T22:17:32;7.63;;;3.63;;
64851;SDS011;56050;55.558;-4.644;2022-09-03T22:20:08;7.93;;;4.15;;
64851;SDS011;56050;55.558;-4.644;2022-09-03T22:28:04;7.70;;;4.32;;
64851;SDS011;56050;55.558;-4.644;2022-09-03T22:30:50;9.00;;;4.55;;
64851;SDS011;56050;55.558;-4.644;2022-09-03T22:35:57;12.00;;;4.47;;
64851;SDS011;56050;55.558;-4.644;2022-09-03T22:46:37;8.50;;;4.68;;
64851;SDS011;56050;55.558;-4.644;2022-09-03T22:55:13;7.07;;;3.42;;
64851;SDS011;56050;55.558;-4.644;2022-09-03T22:57:55;8.63;;;4.30;;
64851;SDS011;56050;55.558;-4.644;2022-09-03T23:00:25;9.38;;;4.18;;
64851;SDS011;56050;55.558;-4.644;2022-09-03T23:03:10;9.73;;;3.80;;
64851;SDS011;56050;55.558;-4.644;2022-09-03T23:08:36;8.40;;;4.32;;